Time;durP1;ratioP1;P1;durP2;ratioP2;P2;SDS_P1;SDS_P2;PMS_P1;PMS_P2;Temp;Humidity;BMP_temperature;BMP_pressure;BME280_temperature;BME280_humidity;BME280_pressure;Samples;Min_cycle;Max_cycle;Signal;HPM_P1;HPM_P2
2022/10/17 00:00:54;;;;;;;7.00;2.40;;;11.80;99.90;;;;;;5033604;28;20242;-54
2022/10/17 00:03:24;;;;;;;3.80;2.40;;;11.80;99.90;;;;;;5034159;28;20230;-55
2022/10/17 00:05:52;;;;;;;4.97;2.27;;;11.80;99.90;;;;;;5032743;28;20223;-54
2022/10/17 00:08:20;;;;;;;6.63;2.10;;;11.90;99.90;;;;;;5033809;28;20234;-55
2022/10/17 00:10:56;;;;;;;5.30;2.10;;;11.80;99.90;;;;;;5033883;28;20631;-55
2022/10/17 00:13:25;;;;;;;4.97;2.40;;;11.80;99.90;;;;;;5033903;28;20234;-54
2022/10/17 00:15:53;;;;;;;3.77;2.20;;;11.80;99.90;;;;;;5033764;28;20592;-55
2022/10/17 00:18:21;;;;;;;4.43;2.23;;;11.80;99.90;;;;;;5033813;28;20304;-55
2022/10/17 00:20:51;;;;;;;4.83;2.00;;;11.80;99.90;;;;;;5032942;28;20222;-54
2022/10/17 00:23:20;;;;;;;5.47;2.10;;;11.80;99.90;;;;;;5033654;28;20631;-55
2022/10/17 00:25:57;;;;;;;6.17;2.33;;;11.80;99.90;;;;;;5033679;28;20234;-55
2022/10/17 00:28:25;;;;;;;4.43;2.27;;;11.80;99.90;;;;;;5033694;28;20241;-55
2022/10/17 00:30:56;;;;;;;6.27;2.43;;;11.80;99.90;;;;;;5032906;28;20243;-55
2022/10/17 00:33:24;;;;;;;6.67;2.30;;;11.80;99.90;;;;;;5033226;28;20227;-55
2022/10/17 00:36:02;;;;;;;7.67;2.40;;;11.80;99.90;;;;;;5033569;28;20230;-55
2022/10/17 00:38:31;;;;;;;5.63;2.07;;;11.80;99.90;;;;;;5033024;28;20246;-55
2022/10/17 00:40:59;;;;;;;5.57;2.53;;;11.80;99.90;;;;;;5033220;28;20221;-55
2022/10/17 00:43:28;;;;;;;5.90;2.70;;;11.80;99.90;;;;;;5033025;28;20262;-55
2022/10/17 00:45:56;;;;;;;5.33;2.57;;;11.80;99.90;;;;;;5033235;28;20230;-55
2022/10/17 00:48:25;;;;;;;6.67;2.50;;;11.80;99.90;;;;;;5033096;28;20709;-55
2022/10/17 00:50:55;;;;;;;5.10;2.80;;;11.80;99.90;;;;;;5048282;28;20231;-55
2022/10/17 00:53:23;;;;;;;5.40;2.60;;;11.80;99.90;;;;;;5032257;28;20231;-55
2022/10/17 00:55:53;;;;;;;4.90;2.63;;;11.90;99.90;;;;;;5032777;28;20610;-55
2022/10/17 00:58:22;;;;;;;3.90;2.60;;;11.90;99.90;;;;;;5031577;28;20246;-54
2022/10/17 01:00:50;;;;;;;6.37;2.93;;;11.90;99.90;;;;;;5030890;28;20320;-54
2022/10/17 01:03:18;;;;;;;4.40;3.00;;;12.00;99.90;;;;;;5031200;28;20239;-54
2022/10/17 01:05:46;;;;;;;6.57;2.90;;;12.00;99.90;;;;;;5032610;28;20232;-55
2022/10/17 01:08:16;;;;;;;8.47;3.03;;;12.00;99.90;;;;;;5032852;28;20221;-54
2022/10/17 01:10:56;;;;;;;5.73;3.10;;;12.00;99.90;;;;;;5048013;28;20305;-55
2022/10/17 01:13:28;;;;;;;5.53;3.23;;;12.00;99.90;;;;;;5048151;28;20231;-54
2022/10/17 01:16:04;;;;;;;6.43;3.50;;;12.00;99.90;;;;;;5033068;28;20218;-54
2022/10/17 01:18:46;;;;;;;6.43;3.03;;;12.00;99.90;;;;;;5047646;28;20235;-54
2022/10/17 01:21:29;;;;;;;5.23;3.10;;;12.00;99.90;;;;;;5032071;28;20685;-55
2022/10/17 01:24:28;;;;;;;10.33;3.87;;;12.10;99.90;;;;;;5039558;28;20238;-55
2022/10/17 01:27:20;;;;;;;8.10;3.13;;;12.00;99.90;;;;;;5026647;28;20267;-54
2022/10/17 01:30:14;;;;;;;7.07;3.03;;;12.10;99.90;;;;;;5028043;28;20316;-54
2022/10/17 01:32:47;;;;;;;7.20;3.50;;;12.00;99.90;;;;;;5047099;28;20241;-54
2022/10/17 01:35:23;;;;;;;5.50;3.77;;;12.00;99.90;;;;;;5032695;28;20797;-55
2022/10/17 01:37:59;;;;;;;6.07;3.10;;;12.00;99.90;;;;;;5031234;28;20241;-55
2022/10/17 01:40:30;;;;;;;8.17;3.40;;;12.10;99.90;;;;;;5032039;28;20229;-54
2022/10/17 01:43:05;;;;;;;4.07;3.33;;;12.10;99.90;;;;;;5031232;28;20245;-54
2022/10/17 01:45:40;;;;;;;7.07;3.40;;;12.10;99.90;;;;;;5047537;28;20228;-54
2022/10/17 01:48:15;;;;;;;7.80;3.37;;;12.10;99.90;;;;;;5031020;28;20883;-54
2022/10/17 01:50:47;;;;;;;4.43;3.27;;;12.20;99.90;;;;;;5032013;28;20228;-54
2022/10/17 01:53:21;;;;;;;9.33;3.50;;;12.10;99.90;;;;;;5024604;28;20741;-54
2022/10/17 01:55:54;;;;;;;9.57;3.90;;;12.10;99.90;;;;;;5030885;28;20249;-54
2022/10/17 01:58:28;;;;;;;8.27;3.27;;;12.10;99.90;;;;;;5031051;28;20243;-54
2022/10/17 02:01:00;;;;;;;9.23;3.37;;;12.10;99.90;;;;;;5035378;28;20231;-54
2022/10/17 02:03:34;;;;;;;8.00;3.70;;;12.10;99.90;;;;;;5030680;28;20225;-54
2022/10/17 02:06:02;;;;;;;5.40;3.10;;;12.10;99.90;;;;;;5033108;28;20239;-54
2022/10/17 02:08:41;;;;;;;7.93;3.10;;;12.10;99.90;;;;;;5035848;28;20215;-54
2022/10/17 02:11:13;;;;;;;9.47;4.00;;;12.20;99.90;;;;;;5036166;28;20227;-54
2022/10/17 02:14:00;;;;;;;5.33;3.17;;;12.20;99.90;;;;;;5034527;28;20242;-54
2022/10/17 02:16:36;;;;;;;4.30;3.03;;;12.20;99.90;;;;;;5034527;28;20230;-55
2022/10/17 02:19:24;;;;;;;7.80;3.43;;;12.30;99.90;;;;;;5051140;28;20249;-54
2022/10/17 02:22:04;;;;;;;6.97;3.30;;;12.30;99.90;;;;;;5032373;28;20229;-54
2022/10/17 02:24:37;;;;;;;6.60;3.23;;;12.30;99.90;;;;;;5035502;28;20228;-54
2022/10/17 02:27:10;;;;;;;5.73;3.10;;;12.30;99.90;;;;;;5035820;28;20227;-55
2022/10/17 02:29:49;;;;;;;7.50;3.43;;;12.40;99.90;;;;;;5030958;28;20228;-54
2022/10/17 02:32:23;;;;;;;8.37;3.37;;;12.50;99.90;;;;;;5028237;28;20258;-54
2022/10/17 02:34:56;;;;;;;4.30;2.80;;;12.40;99.90;;;;;;5034289;28;20248;-55
2022/10/17 02:37:29;;;;;;;5.93;2.87;;;12.50;99.90;;;;;;5034335;28;20697;-54
2022/10/17 02:40:00;;;;;;;5.90;2.80;;;12.60;99.90;;;;;;5034137;28;20250;-54
2022/10/17 02:42:30;;;;;;;5.30;3.20;;;12.60;99.90;;;;;;5033986;28;20226;-54
2022/10/17 02:45:01;;;;;;;5.73;3.27;;;12.60;99.90;;;;;;5035450;28;20214;-55
2022/10/17 02:47:34;;;;;;;5.70;3.13;;;12.60;99.90;;;;;;5031570;28;20227;-54
2022/10/17 02:50:06;;;;;;;3.73;2.60;;;12.70;99.90;;;;;;5032778;28;20220;-53
2022/10/17 02:52:42;;;;;;;9.30;3.17;;;12.70;99.90;;;;;;5033548;28;20221;-55
2022/10/17 02:55:16;;;;;;;6.47;3.10;;;12.70;99.90;;;;;;5014215;28;20244;-54
2022/10/17 02:57:48;;;;;;;4.03;2.83;;;12.70;99.90;;;;;;5019991;28;20226;-54
2022/10/17 03:00:19;;;;;;;4.53;2.90;;;12.80;99.90;;;;;;5049892;28;20699;-54
2022/10/17 03:02:48;;;;;;;5.67;2.60;;;12.80;99.90;;;;;;5035039;28;20246;-55
2022/10/17 03:05:21;;;;;;;5.67;2.67;;;12.80;99.90;;;;;;5033783;28;20595;-54
2022/10/17 03:07:49;;;;;;;3.67;2.50;;;12.90;99.90;;;;;;5035180;28;20233;-55
2022/10/17 03:10:18;;;;;;;4.63;2.97;;;13.00;99.90;;;;;;5033670;28;20293;-54
2022/10/17 03:12:47;;;;;;;5.00;2.87;;;13.00;99.90;;;;;;5033454;28;20227;-54
2022/10/17 03:15:15;;;;;;;6.67;3.30;;;13.00;99.90;;;;;;5033544;28;20241;-54
2022/10/17 03:17:44;;;;;;;4.30;2.67;;;12.90;99.90;;;;;;5033025;28;20717;-54
2022/10/17 03:20:19;;;;;;;5.50;2.90;;;13.00;99.90;;;;;;5033536;28;20247;-55
2022/10/17 03:22:47;;;;;;;7.33;3.30;;;13.00;99.90;;;;;;5038431;28;20223;-55
2022/10/17 03:25:15;;;;;;;4.43;3.20;;;13.00;99.90;;;;;;5033592;28;20238;-54
2022/10/17 03:27:43;;;;;;;3.47;2.70;;;13.00;99.90;;;;;;5033119;28;20242;-55
2022/10/17 03:30:11;;;;;;;4.17;2.83;;;13.00;99.90;;;;;;5034395;28;20218;-54
2022/10/17 03:32:39;;;;;;;6.83;4.93;;;13.00;99.90;;;;;;5032928;28;20273;-54
2022/10/17 03:35:08;;;;;;;8.13;5.17;;;13.00;99.90;;;;;;5049653;28;20236;-54
2022/10/17 03:37:45;;;;;;;5.03;3.10;;;13.00;99.90;;;;;;5050016;28;20260;-54
2022/10/17 03:40:15;;;;;;;6.63;4.33;;;13.10;99.90;;;;;;5033056;28;20249;-54
2022/10/17 03:42:43;;;;;;;4.80;3.90;;;13.10;99.90;;;;;;5049492;28;20634;-54
2022/10/17 03:45:11;;;;;;;7.60;5.83;;;13.00;99.90;;;;;;5034325;28;20234;-54
2022/10/17 03:47:39;;;;;;;6.97;4.70;;;13.00;99.90;;;;;;5049298;28;20246;-55
2022/10/17 03:50:08;;;;;;;4.60;4.07;;;13.00;99.90;;;;;;5034596;28;20228;-54
2022/10/17 03:52:38;;;;;;;3.80;3.47;;;12.90;99.90;;;;;;5032442;28;20231;-54
2022/10/17 03:55:08;;;;;;;4.17;2.63;;;13.00;99.90;;;;;;5049047;28;20601;-54
2022/10/17 03:57:36;;;;;;;4.17;2.90;;;13.00;99.90;;;;;;5049094;28;20243;-54
2022/10/17 04:00:11;;;;;;;4.80;3.13;;;13.00;99.90;;;;;;5044260;28;20227;-55
2022/10/17 04:02:43;;;;;;;4.87;3.10;;;13.00;99.90;;;;;;5033379;28;20739;-54
2022/10/17 04:05:17;;;;;;;4.10;3.47;;;13.00;99.90;;;;;;5032646;28;20643;-53
2022/10/17 04:07:46;;;;;;;6.37;3.20;;;12.90;99.90;;;;;;5032508;28;20763;-54
2022/10/17 04:10:18;;;;;;;3.33;3.00;;;12.90;99.90;;;;;;5032528;28;20282;-54
2022/10/17 04:12:47;;;;;;;3.87;3.00;;;12.80;99.90;;;;;;5032401;28;20717;-54
2022/10/17 04:15:15;;;;;;;4.67;3.10;;;12.80;99.90;;;;;;5033995;28;20235;-54
2022/10/17 04:17:44;;;;;;;5.87;3.40;;;12.90;99.90;;;;;;5032012;28;20226;-56
2022/10/17 04:20:16;;;;;;;4.73;2.90;;;12.90;99.90;;;;;;5040619;28;20223;-57
2022/10/17 04:22:45;;;;;;;3.33;3.03;;;12.90;99.90;;;;;;5031692;28;20228;-54
2022/10/17 04:25:14;;;;;;;3.50;2.70;;;12.80;99.90;;;;;;5032301;28;20575;-54
2022/10/17 04:27:47;;;;;;;4.70;2.50;;;12.90;99.90;;;;;;5032799;28;20219;-54
2022/10/17 04:30:16;;;;;;;6.97;3.20;;;12.80;99.90;;;;;;5036330;28;20223;-55
2022/10/17 04:32:45;;;;;;;3.87;2.97;;;12.80;99.90;;;;;;5031872;28;20224;-55
2022/10/17 04:35:19;;;;;;;6.23;3.03;;;12.80;99.90;;;;;;5032089;28;20306;-54
2022/10/17 04:37:53;;;;;;;6.60;3.27;;;12.70;99.90;;;;;;5032009;28;20222;-55
2022/10/17 04:40:21;;;;;;;4.93;3.00;;;12.70;99.90;;;;;;5031854;28;20256;-55
2022/10/17 04:42:53;;;;;;;3.00;2.70;;;12.70;99.90;;;;;;5031963;28;20234;-55
2022/10/17 04:45:27;;;;;;;5.63;3.00;;;12.70;99.90;;;;;;5031757;28;20233;-54
2022/10/17 04:48:00;;;;;;;5.50;3.03;;;12.70;99.90;;;;;;5023814;28;20232;-54
2022/10/17 04:50:28;;;;;;;4.73;2.83;;;12.70;99.90;;;;;;5026605;28;20305;-54
2022/10/17 04:53:23;;;;;;;4.07;2.63;;;12.70;99.90;;;;;;5029925;28;20235;-54
2022/10/17 04:55:51;;;;;;;4.67;3.37;;;12.80;99.90;;;;;;5032865;28;20243;-54
2022/10/17 04:58:21;;;;;;;4.70;3.57;;;12.70;99.90;;;;;;5032953;28;20568;-54
2022/10/17 05:00:50;;;;;;;5.77;3.13;;;12.70;99.90;;;;;;5027821;28;20236;-54
2022/10/17 05:03:25;;;;;;;3.60;3.30;;;12.70;99.90;;;;;;5011756;28;20255;-54
2022/10/17 05:05:53;;;;;;;4.53;3.37;;;12.70;99.90;;;;;;5011860;28;20233;-55
2022/10/17 05:08:22;;;;;;;3.70;2.90;;;12.70;99.90;;;;;;5012987;28;20734;-55
2022/10/17 05:10:50;;;;;;;3.97;2.70;;;12.70;99.90;;;;;;5058777;28;20215;-55
2022/10/17 05:13:20;;;;;;;3.27;2.97;;;12.70;99.90;;;;;;5033626;28;20269;-54
2022/10/17 05:15:49;;;;;;;5.97;3.63;;;12.70;99.90;;;;;;5029796;28;20238;-54
2022/10/17 05:18:17;;;;;;;5.80;4.17;;;12.70;99.90;;;;;;5043094;28;20222;-54
2022/10/17 05:20:46;;;;;;;4.20;3.80;;;12.60;99.90;;;;;;5038950;28;20707;-54
2022/10/17 05:23:14;;;;;;;5.93;3.83;;;12.70;99.90;;;;;;5026699;28;20255;-54
2022/10/17 05:25:43;;;;;;;5.50;3.97;;;12.60;99.90;;;;;;5028394;28;20225;-54
2022/10/17 05:28:15;;;;;;;4.40;3.63;;;12.60;99.90;;;;;;5032513;28;20353;-55
2022/10/17 05:30:44;;;;;;;4.03;3.47;;;12.60;99.90;;;;;;5030714;28;20258;-54
2022/10/17 05:33:12;;;;;;;4.03;3.60;;;12.60;99.90;;;;;;5031431;28;20278;-54
2022/10/17 05:35:40;;;;;;;5.70;3.90;;;12.60;99.90;;;;;;5032450;28;20235;-54
2022/10/17 05:38:08;;;;;;;5.87;4.00;;;12.70;99.90;;;;;;5031385;28;20586;-54
2022/10/17 05:40:38;;;;;;;4.10;3.53;;;12.60;99.90;;;;;;5049163;28;20234;-54
2022/10/17 05:43:06;;;;;;;5.47;4.03;;;12.70;99.90;;;;;;5052195;28;20236;-55
2022/10/17 05:45:36;;;;;;;4.30;3.53;;;12.70;99.90;;;;;;5051810;28;20224;-55
2022/10/17 05:48:07;;;;;;;6.10;3.57;;;12.60;99.90;;;;;;5051919;28;20294;-55
2022/10/17 05:50:36;;;;;;;3.33;3.03;;;12.60;99.90;;;;;;5048152;28;20216;-55
2022/10/17 05:53:10;;;;;;;4.30;3.23;;;12.60;99.90;;;;;;5043426;28;20729;-54
2022/10/17 05:55:44;;;;;;;3.80;3.40;;;12.60;99.90;;;;;;5034535;28;20330;-55
2022/10/17 05:58:12;;;;;;;6.20;3.50;;;12.60;99.90;;;;;;5035028;28;20701;-55
2022/10/17 06:00:58;;;;;;;4.50;3.37;;;12.70;99.90;;;;;;5047823;28;20226;-53
2022/10/17 06:03:28;;;;;;;3.67;3.30;;;12.70;99.90;;;;;;5018910;28;21002;-53
2022/10/17 06:05:57;;;;;;;4.37;3.20;;;12.60;99.90;;;;;;5039900;28;20235;-54
2022/10/17 06:08:25;;;;;;;3.33;2.83;;;12.70;99.90;;;;;;5025869;28;20223;-53
2022/10/17 06:10:53;;;;;;;4.63;3.53;;;12.70;99.90;;;;;;5034545;28;20825;-53
2022/10/17 06:13:21;;;;;;;3.87;3.23;;;12.70;99.90;;;;;;5041665;28;20240;-54
2022/10/17 06:15:51;;;;;;;4.83;3.40;;;12.70;99.90;;;;;;5026183;28;20285;-53
2022/10/17 06:18:19;;;;;;;4.10;3.60;;;12.70;99.90;;;;;;5042366;28;20583;-54
2022/10/17 06:20:49;;;;;;;3.87;3.50;;;12.80;99.90;;;;;;5023655;28;20249;-53
2022/10/17 06:23:19;;;;;;;3.60;3.30;;;12.70;99.90;;;;;;5038434;28;20231;-53
2022/10/17 06:26:01;;;;;;;3.60;3.30;;;12.80;99.90;;;;;;5034307;28;20768;-53
2022/10/17 06:28:30;;;;;;;3.80;3.40;;;12.80;99.90;;;;;;5038050;28;20266;-54
2022/10/17 06:30:58;;;;;;;4.93;3.60;;;12.80;99.90;;;;;;5023109;28;20248;-53
2022/10/17 06:33:27;;;;;;;6.27;3.63;;;12.90;99.90;;;;;;5037121;28;20239;-52
2022/10/17 06:35:57;;;;;;;3.93;3.63;;;13.00;99.90;;;;;;5038124;28;21077;-54
2022/10/17 06:38:26;;;;;;;3.97;3.53;;;13.00;99.90;;;;;;5036417;28;20239;-53
2022/10/17 06:41:03;;;;;;;3.90;3.60;;;13.10;99.90;;;;;;5034905;28;20269;-52
2022/10/17 06:43:31;;;;;;;5.33;3.70;;;13.20;99.90;;;;;;5037448;28;20222;-52
2022/10/17 06:46:19;;;;;;;4.07;3.50;;;13.30;99.90;;;;;;5022613;28;20257;-53
2022/10/17 06:48:59;;;;;;;5.97;3.83;;;13.50;99.90;;;;;;5041789;28;20271;-54
2022/10/17 06:51:41;;;;;;;5.00;3.63;;;13.60;99.90;;;;;;5029771;28;20260;-52
2022/10/17 06:54:12;;;;;;;3.77;3.47;;;13.80;99.90;;;;;;5036354;28;20233;-54
2022/10/17 06:57:01;;;;;;;4.80;3.97;;;13.90;99.90;;;;;;5022766;28;20660;-54
2022/10/17 06:59:58;;;;;;;6.03;3.90;;;14.10;99.90;;;;;;5039188;28;20230;-53
2022/10/17 07:02:34;;;;;;;5.47;4.00;;;14.20;99.90;;;;;;5023603;28;20327;-53
2022/10/17 07:05:02;;;;;;;4.10;3.73;;;14.40;99.90;;;;;;5032275;28;20665;-53
2022/10/17 07:07:32;;;;;;;4.70;4.30;;;14.50;99.90;;;;;;5021352;28;20696;-52
2022/10/17 07:10:00;;;;;;;4.87;3.83;;;14.60;99.90;;;;;;5034592;28;20789;-53
2022/10/17 07:12:28;;;;;;;5.17;4.03;;;14.80;99.90;;;;;;5018802;28;20582;-54
2022/10/17 07:14:56;;;;;;;4.10;3.70;;;14.90;99.90;;;;;;5024480;28;20228;-54
2022/10/17 07:17:24;;;;;;;4.30;3.90;;;15.10;99.90;;;;;;5034449;28;20246;-54
2022/10/17 07:19:52;;;;;;;4.87;3.40;;;15.20;99.90;;;;;;5035422;28;20223;-54
2022/10/17 07:22:21;;;;;;;4.70;3.50;;;15.30;99.90;;;;;;5018241;28;20235;-52
2022/10/17 07:24:53;;;;;;;4.93;3.40;;;15.40;99.90;;;;;;5024813;28;21080;-54
2022/10/17 07:27:27;;;;;;;5.30;3.50;;;15.60;99.90;;;;;;5033652;28;20246;-53
2022/10/17 07:29:56;;;;;;;3.90;3.37;;;15.60;99.90;;;;;;5020158;28;20324;-54
2022/10/17 07:32:34;;;;;;;5.03;3.67;;;15.60;99.90;;;;;;5022394;28;20351;-54
2022/10/17 07:35:03;;;;;;;3.77;3.37;;;15.60;99.90;;;;;;5022973;28;20243;-53
2022/10/17 07:37:31;;;;;;;4.47;3.53;;;15.80;99.90;;;;;;5024787;28;20229;-53
2022/10/17 07:40:01;;;;;;;4.30;4.00;;;15.90;99.90;;;;;;5034536;28;20239;-53
2022/10/17 07:42:30;;;;;;;7.83;3.80;;;16.00;99.90;;;;;;5035488;28;20923;-54
2022/10/17 07:44:58;;;;;;;4.10;3.80;;;16.10;99.90;;;;;;5028952;28;20271;-54
2022/10/17 07:47:29;;;;;;;6.40;3.80;;;16.10;99.90;;;;;;5032559;28;20275;-54
2022/10/17 07:49:59;;;;;;;4.50;3.87;;;16.10;99.90;;;;;;5029806;28;20270;-55
2022/10/17 07:52:27;;;;;;;8.57;4.13;;;16.20;99.90;;;;;;5020337;28;20282;-53
2022/10/17 07:54:55;;;;;;;5.20;4.07;;;16.20;99.90;;;;;;5018306;28;20232;-53
2022/10/17 07:57:25;;;;;;;4.43;4.03;;;16.30;99.90;;;;;;5018184;28;20712;-52
2022/10/17 07:59:54;;;;;;;7.80;4.20;;;16.50;99.90;;;;;;5020454;28;20233;-54
2022/10/17 08:02:24;;;;;;;4.60;3.43;;;16.50;99.90;;;;;;5020121;28;20721;-53
2022/10/17 08:04:53;;;;;;;4.33;3.80;;;16.50;99.90;;;;;;5018863;28;20252;-53
2022/10/17 08:07:22;;;;;;;5.33;3.47;;;16.50;99.90;;;;;;5019590;28;20262;-54
2022/10/17 08:09:56;;;;;;;4.73;3.77;;;16.40;99.90;;;;;;5017166;28;20367;-53
2022/10/17 08:12:26;;;;;;;5.23;4.00;;;16.40;99.90;;;;;;5020903;28;20225;-53
2022/10/17 08:14:54;;;;;;;7.20;4.10;;;16.40;99.90;;;;;;5019820;28;20228;-54
2022/10/17 08:17:22;;;;;;;5.27;3.63;;;16.50;99.90;;;;;;5017963;28;20237;-53
2022/10/17 08:19:50;;;;;;;3.97;3.57;;;16.50;99.90;;;;;;5015008;28;20632;-54
2022/10/17 08:22:19;;;;;;;6.83;3.93;;;16.60;99.90;;;;;;5018607;28;20241;-53
2022/10/17 08:24:47;;;;;;;4.60;3.40;;;16.60;99.90;;;;;;5034521;28;20228;-53
2022/10/17 08:27:20;;;;;;;4.30;3.90;;;16.70;99.90;;;;;;5030721;28;20350;-54
2022/10/17 08:29:51;;;;;;;5.10;3.90;;;16.80;99.90;;;;;;5036228;28;20255;-54
2022/10/17 08:32:20;;;;;;;6.77;4.33;;;16.80;99.90;;;;;;5017938;28;20565;-54
2022/10/17 08:34:48;;;;;;;4.43;4.03;;;16.80;99.90;;;;;;5021378;28;20280;-53
2022/10/17 08:37:16;;;;;;;5.03;4.37;;;17.00;99.90;;;;;;5018330;28;20233;-53
2022/10/17 08:39:44;;;;;;;5.57;4.33;;;17.30;99.90;;;;;;5020940;28;20228;-53
2022/10/17 08:42:31;;;;;;;5.30;3.70;;;17.60;99.90;;;;;;5021284;28;20692;-54
2022/10/17 08:45:13;;;;;;;5.57;3.93;;;17.70;99.90;;;;;;5015650;28;20603;-54
2022/10/17 08:47:45;;;;;;;7.43;4.07;;;17.50;99.90;;;;;;5021404;28;20255;-53
2022/10/17 08:50:17;;;;;;;4.10;3.73;;;17.50;99.90;;;;;;5018992;28;20280;-54
2022/10/17 08:52:51;;;;;;;4.50;4.10;;;17.40;99.90;;;;;;5016788;28;20665;-53
2022/10/17 08:55:32;;;;;;;8.27;3.97;;;17.50;99.90;;;;;;5020662;28;20237;-55
2022/10/17 08:58:00;;;;;;;5.33;3.97;;;17.60;99.90;;;;;;5026164;28;20674;-55
2022/10/17 09:00:32;;;;;;;7.03;3.87;;;17.60;99.90;;;;;;5032132;28;20255;-54
2022/10/17 09:03:20;;;;;;;4.63;3.90;;;17.60;99.90;;;;;;5032275;28;20669;-54
2022/10/17 09:05:53;;;;;;;4.67;4.20;;;17.70;99.90;;;;;;5013319;28;20268;-54
2022/10/17 09:08:32;;;;;;;6.07;3.93;;;17.80;99.90;;;;;;5031340;28;20718;-54
2022/10/17 09:11:05;;;;;;;5.80;4.60;;;17.90;99.90;;;;;;5033490;28;20225;-55
2022/10/17 09:13:45;;;;;;;3.87;3.47;;;18.00;99.90;;;;;;5032579;28;20217;-55
2022/10/17 09:16:29;;;;;;;5.50;3.83;;;18.10;99.90;;;;;;5032958;28;20224;-55
2022/10/17 09:19:03;;;;;;;5.97;3.70;;;18.10;99.90;;;;;;5032510;28;20231;-55
2022/10/17 09:21:41;;;;;;;5.40;4.10;;;18.10;99.90;;;;;;5032285;28;20243;-54
2022/10/17 09:24:16;;;;;;;4.83;3.80;;;18.30;99.90;;;;;;5030918;28;20695;-55
2022/10/17 09:26:46;;;;;;;5.10;3.43;;;18.50;99.90;;;;;;5028326;28;20228;-55
2022/10/17 09:29:20;;;;;;;3.83;3.47;;;18.60;99.90;;;;;;5029311;28;20229;-55
2022/10/17 09:31:57;;;;;;;6.10;4.00;;;18.70;99.90;;;;;;5029812;28;20236;-54
2022/10/17 09:34:28;;;;;;;5.67;3.60;;;19.00;99.90;;;;;;5032513;28;20692;-54
2022/10/17 09:36:58;;;;;;;3.60;3.30;;;19.20;99.90;;;;;;5014308;28;20229;-55
2022/10/17 09:39:30;;;;;;;6.17;3.73;;;19.20;99.90;;;;;;5032645;28;20582;-53
2022/10/17 09:42:00;;;;;;;8.13;3.37;;;19.10;99.90;;;;;;5032293;28;20624;-55
2022/10/17 09:44:31;;;;;;;5.20;3.20;;;19.10;99.90;;;;;;5029363;28;20637;-54
2022/10/17 09:47:13;;;;;;;4.13;3.27;;;19.10;99.90;;;;;;5025125;28;20219;-55
2022/10/17 09:49:43;;;;;;;4.23;3.47;;;19.20;99.90;;;;;;5032802;28;20592;-55
2022/10/17 09:52:14;;;;;;;4.87;3.77;;;19.20;99.90;;;;;;5024406;28;20269;-54
2022/10/17 09:54:46;;;;;;;4.77;3.60;;;19.20;99.90;;;;;;5032243;28;20610;-55
2022/10/17 09:57:16;;;;;;;4.30;3.40;;;19.20;99.90;;;;;;5032470;28;20260;-55
2022/10/17 09:59:46;;;;;;;4.27;3.73;;;19.10;99.90;;;;;;5032088;28;20237;-55
2022/10/17 10:02:19;;;;;;;6.27;3.83;;;19.10;99.90;;;;;;5031034;28;20230;-55
2022/10/17 10:05:03;;;;;;;5.27;3.63;;;19.10;99.90;;;;;;5024247;28;20230;-55
2022/10/17 10:07:36;;;;;;;6.93;3.73;;;19.20;99.90;;;;;;5021671;28;20230;-54
2022/10/17 10:10:08;;;;;;;5.30;3.90;;;19.20;99.90;;;;;;5022185;28;20237;-54
2022/10/17 10:12:38;;;;;;;5.70;3.50;;;19.20;99.90;;;;;;5022806;28;20226;-55
2022/10/17 10:15:33;;;;;;;5.30;4.07;;;19.30;99.90;;;;;;5024127;28;20228;-55
2022/10/17 10:18:02;;;;;;;5.27;3.87;;;19.30;99.90;;;;;;5022219;28;20520;-55
2022/10/17 10:20:33;;;;;;;3.90;3.50;;;19.30;99.90;;;;;;5020676;28;20236;-55
2022/10/17 10:23:07;;;;;;;5.87;3.73;;;19.30;99.90;;;;;;5022252;28;20241;-55
2022/10/17 10:25:35;;;;;;;5.30;3.70;;;19.20;99.90;;;;;;5022671;28;20264;-55
2022/10/17 10:28:10;;;;;;;4.57;4.13;;;19.20;99.90;;;;;;5025869;28;22121;-54
2022/10/17 10:30:38;;;;;;;4.50;4.10;;;19.20;99.90;;;;;;5025511;28;20237;-55
2022/10/17 10:33:12;;;;;;;4.30;3.90;;;19.30;99.90;;;;;;5026108;28;20227;-54
2022/10/17 10:35:40;;;;;;;6.43;3.87;;;19.30;99.90;;;;;;5025969;28;20225;-54
2022/10/17 10:38:11;;;;;;;6.47;4.47;;;19.30;99.90;;;;;;5026636;28;20619;-54
2022/10/17 10:40:46;;;;;;;4.53;3.83;;;19.40;99.90;;;;;;5026139;28;20235;-53
2022/10/17 10:43:22;;;;;;;5.23;4.10;;;19.40;99.90;;;;;;5024749;28;20585;-53
2022/10/17 10:45:52;;;;;;;5.40;4.10;;;19.40;99.90;;;;;;5024701;28;20221;-54
2022/10/17 10:48:24;;;;;;;6.87;4.23;;;19.50;99.90;;;;;;5025534;28;20244;-55
2022/10/17 10:50:55;;;;;;;5.17;4.23;;;19.40;99.90;;;;;;5026685;28;20235;-55
2022/10/17 10:53:41;;;;;;;6.47;4.70;;;19.40;99.90;;;;;;5024712;28;20729;-55
2022/10/17 10:56:15;;;;;;;7.23;4.47;;;19.30;99.90;;;;;;5026654;28;21028;-53
2022/10/17 10:58:51;;;;;;;4.43;4.03;;;19.30;99.90;;;;;;5028197;28;20229;-53
2022/10/17 11:01:27;;;;;;;8.73;4.90;;;19.30;99.90;;;;;;5037773;28;20598;-54
2022/10/17 11:04:13;;;;;;;7.00;4.43;;;19.40;99.90;;;;;;5030701;28;20237;-54
2022/10/17 11:06:44;;;;;;;4.53;4.13;;;19.40;99.90;;;;;;5026147;28;20244;-54
2022/10/17 11:09:24;;;;;;;5.53;3.93;;;19.40;99.90;;;;;;5023406;28;20239;-54
2022/10/17 11:12:04;;;;;;;4.97;4.10;;;19.40;99.90;;;;;;5024157;28;20235;-55
2022/10/17 11:14:44;;;;;;;4.57;3.90;;;19.40;99.90;;;;;;5025909;28;20309;-54
2022/10/17 11:17:23;;;;;;;4.70;4.03;;;19.40;99.90;;;;;;5025617;28;21369;-52
2022/10/17 11:20:02;;;;;;;6.50;3.83;;;19.40;99.90;;;;;;5024995;28;20226;-55
2022/10/17 11:22:32;;;;;;;5.23;4.13;;;19.40;99.90;;;;;;5024468;28;20575;-54
2022/10/17 11:25:05;;;;;;;4.97;3.70;;;19.40;99.90;;;;;;5024250;28;20845;-54
2022/10/17 11:27:35;;;;;;;5.73;3.90;;;19.40;99.90;;;;;;5032822;28;20238;-55
2022/10/17 11:30:04;;;;;;;4.20;3.80;;;19.40;99.90;;;;;;5037973;28;20239;-54
2022/10/17 11:32:38;;;;;;;4.63;4.23;;;19.30;99.90;;;;;;5033508;28;20733;-55
2022/10/17 11:35:19;;;;;;;5.87;4.40;;;19.30;99.90;;;;;;5033281;28;20238;-55
2022/10/17 11:37:53;;;;;;;7.07;3.60;;;19.40;99.90;;;;;;5031117;28;20678;-55
2022/10/17 11:40:29;;;;;;;4.07;3.50;;;19.50;99.90;;;;;;5028562;28;20226;-54
2022/10/17 11:43:00;;;;;;;4.77;3.87;;;19.50;99.90;;;;;;5034314;28;20236;-55
2022/10/17 11:45:33;;;;;;;5.27;3.87;;;19.40;99.90;;;;;;5034415;28;20702;-55
2022/10/17 11:48:06;;;;;;;4.60;4.20;;;19.40;99.90;;;;;;5034614;28;20640;-55
2022/10/17 11:50:37;;;;;;;6.17;4.27;;;19.30;99.90;;;;;;5033943;28;20230;-55
2022/10/17 11:53:29;;;;;;;5.23;4.23;;;19.20;99.90;;;;;;5033635;28;20694;-54
2022/10/17 11:56:00;;;;;;;6.23;4.00;;;19.10;99.90;;;;;;5033987;28;20258;-55
2022/10/17 11:58:39;;;;;;;4.57;4.13;;;19.00;99.90;;;;;;5033887;28;20238;-55
2022/10/17 12:01:14;;;;;;;5.47;4.30;;;18.90;99.90;;;;;;5033797;28;20245;-55
2022/10/17 12:03:54;;;;;;;7.87;5.00;;;18.70;99.90;;;;;;5034029;28;20233;-55
2022/10/17 12:06:38;;;;;;;7.43;4.60;;;18.50;99.90;;;;;;5032993;28;20216;-55
2022/10/17 12:09:15;;;;;;;8.67;4.57;;;18.30;99.90;;;;;;5033991;28;20227;-55
2022/10/17 12:11:53;;;;;;;6.47;5.00;;;18.30;99.90;;;;;;5033767;28;20581;-56
2022/10/17 12:14:45;;;;;;;7.30;5.73;;;18.20;99.90;;;;;;5034040;28;20228;-55
2022/10/17 12:17:34;;;;;;;7.50;5.27;;;18.20;99.90;;;;;;5019251;28;20273;-56
2022/10/17 12:20:34;;;;;;;6.23;5.47;;;18.20;99.90;;;;;;5033459;28;20255;-56
2022/10/17 12:23:30;;;;;;;8.03;5.90;;;18.10;99.90;;;;;;5020606;28;20234;-55
2022/10/17 12:26:00;;;;;;;6.57;5.73;;;18.00;99.90;;;;;;5032184;28;20597;-55
2022/10/17 12:28:33;;;;;;;9.50;6.90;;;18.00;99.90;;;;;;5033486;28;20234;-55
2022/10/17 12:31:05;;;;;;;8.73;5.87;;;17.90;99.90;;;;;;5032172;28;20233;-55
2022/10/17 12:33:36;;;;;;;7.60;5.90;;;18.00;99.90;;;;;;5032808;28;20225;-55
2022/10/17 12:36:41;;;;;;;8.37;6.83;;;18.00;99.90;;;;;;5031842;28;20231;-56
2022/10/17 12:39:51;;;;;;;7.33;6.50;;;17.90;99.90;;;;;;5033425;28;20693;-55
2022/10/17 12:42:32;;;;;;;8.67;7.17;;;17.90;99.90;;;;;;5027578;28;20237;-55
2022/10/17 12:45:00;;;;;;;7.23;5.87;;;17.90;99.90;;;;;;5033126;28;20228;-55
2022/10/17 12:47:37;;;;;;;8.47;6.40;;;17.80;99.90;;;;;;5032645;28;20386;-56
2022/10/17 12:50:39;;;;;;;7.83;7.03;;;17.80;99.90;;;;;;5032809;28;20221;-56
2022/10/17 12:53:12;;;;;;;8.40;7.30;;;17.80;99.90;;;;;;5032727;28;20224;-55
2022/10/17 12:55:46;;;;;;;9.00;7.60;;;17.70;99.90;;;;;;5033070;28;20675;-55
2022/10/17 12:58:16;;;;;;;8.87;7.97;;;17.60;99.90;;;;;;5028432;28;20237;-55
2022/10/17 13:00:50;;;;;;;10.67;7.83;;;17.60;99.90;;;;;;5028469;28;20237;-55
2022/10/17 13:03:44;;;;;;;9.13;7.63;;;17.60;99.90;;;;;;5023170;28;20718;-55
2022/10/17 13:06:19;;;;;;;8.40;7.50;;;17.60;99.90;;;;;;5026209;28;20285;-56
2022/10/17 13:08:50;;;;;;;10.03;8.97;;;17.60;99.90;;;;;;5032899;28;20244;-55
2022/10/17 13:11:26;;;;;;;11.77;10.57;;;17.60;99.90;;;;;;5033017;28;20234;-55
2022/10/17 13:13:58;;;;;;;10.20;9.10;;;17.60;99.90;;;;;;5033024;28;20217;-55
2022/10/17 13:16:28;;;;;;;10.00;8.77;;;17.60;99.90;;;;;;5032384;28;20276;-55